Time;durP1;ratioP1;P1;durP2;ratioP2;P2;SDS_P1;SDS_P2;PMS_P1;PMS_P2;Temp;Humidity;BMP_temperature;BMP_pressure;BME280_temperature;BME280_humidity;BME280_pressure;Samples;Min_cycle;Max_cycle;Signal;HPM_P1;HPM_P2
2022/07/04 00:01:09;;;;;;;2.08;1.00;;;24.70;59.80;;;;;;10130573;28;20104;-62
2022/07/04 00:06:00;;;;;;;1.58;1.15;;;24.60;60.10;;;;;;10131795;28;20051;-60
2022/07/04 00:10:51;;;;;;;3.17;1.02;;;24.20;60.80;;;;;;10130644;28;20053;-61
2022/07/04 00:15:41;;;;;;;2.13;0.90;;;24.10;61.00;;;;;;10132025;28;20119;-62
2022/07/04 00:20:32;;;;;;;2.30;1.00;;;23.80;61.50;;;;;;10138449;28;20510;-61
2022/07/04 00:25:23;;;;;;;2.97;1.00;;;23.90;61.70;;;;;;10138870;28;20367;-60
2022/07/04 00:30:13;;;;;;;1.33;0.80;;;24.00;61.60;;;;;;10115257;28;20568;-61
2022/07/04 00:35:05;;;;;;;1.20;0.80;;;24.00;61.60;;;;;;10138880;28;20103;-68
2022/07/04 00:39:56;;;;;;;2.95;1.60;;;23.80;61.70;;;;;;10137904;28;20024;-64
2022/07/04 00:44:46;;;;;;;1.52;0.80;;;23.70;62.00;;;;;;10137181;28;20028;-65
2022/07/04 00:49:37;;;;;;;0.85;0.60;;;23.80;61.80;;;;;;10137511;28;20027;-67
2022/07/04 00:54:30;;;;;;;3.13;0.90;;;23.60;62.20;;;;;;10137940;28;20657;-68
2022/07/04 00:59:22;;;;;;;1.42;0.93;;;23.50;62.30;;;;;;10137875;28;20044;-66
2022/07/04 01:04:13;;;;;;;4.63;1.38;;;23.40;62.60;;;;;;10137303;28;20036;-66
2022/07/04 01:09:05;;;;;;;1.00;0.90;;;23.50;62.40;;;;;;10137364;28;20036;-65
2022/07/04 01:13:57;;;;;;;0.80;0.80;;;23.20;62.80;;;;;;10137235;28;20032;-66
2022/07/04 01:18:47;;;;;;;1.55;0.75;;;23.30;62.90;;;;;;10136209;28;20024;-67
2022/07/04 01:23:39;;;;;;;1.40;1.00;;;23.20;63.30;;;;;;10135910;28;20080;-61
2022/07/04 01:28:30;;;;;;;1.20;0.95;;;23.00;63.70;;;;;;10134847;28;20032;-66
2022/07/04 01:33:20;;;;;;;2.53;0.85;;;23.20;63.50;;;;;;10135710;28;20174;-61
2022/07/04 01:38:11;;;;;;;1.52;0.90;;;23.30;63.40;;;;;;10135936;28;20032;-69
2022/07/04 01:43:02;;;;;;;3.38;0.80;;;23.30;63.60;;;;;;10135409;28;20017;-65
2022/07/04 01:47:53;;;;;;;2.15;1.00;;;23.20;63.70;;;;;;10136368;28;20042;-66
2022/07/04 01:52:43;;;;;;;2.92;1.20;;;23.10;63.80;;;;;;10135645;28;20055;-65
2022/07/04 01:57:34;;;;;;;2.00;0.80;;;22.90;64.40;;;;;;10135437;28;20033;-66
2022/07/04 02:02:25;;;;;;;1.30;0.70;;;23.10;64.80;;;;;;10134880;28;20021;-64
2022/07/04 02:07:16;;;;;;;0.80;0.57;;;23.00;64.40;;;;;;10117173;28;20131;-69
2022/07/04 02:17:16;;;;;;;2.05;0.93;;;22.80;65.10;;;;;;10135929;28;20063;-60
2022/07/04 02:22:07;;;;;;;1.48;1.00;;;22.80;65.10;;;;;;10136027;28;20028;-65
2022/07/04 02:26:58;;;;;;;2.08;1.15;;;22.60;65.30;;;;;;10113277;28;20441;-66
2022/07/04 02:31:48;;;;;;;2.65;1.27;;;22.50;65.70;;;;;;10115082;28;20020;-67
2022/07/04 02:36:39;;;;;;;1.17;0.93;;;22.50;65.50;;;;;;10133551;28;20032;-64
2022/07/04 02:41:30;;;;;;;2.78;0.90;;;22.40;65.90;;;;;;10134287;28;20017;-67
2022/07/04 02:46:21;;;;;;;1.90;1.00;;;22.40;66.20;;;;;;10132841;28;20076;-64
2022/07/04 02:51:12;;;;;;;1.60;0.90;;;22.50;66.10;;;;;;10132303;28;20092;-62
2022/07/04 02:56:04;;;;;;;2.38;0.90;;;22.60;66.10;;;;;;10132376;28;20433;-63
2022/07/04 03:00:55;;;;;;;4.07;0.98;;;22.40;66.60;;;;;;10130512;28;20035;-68
2022/07/04 03:05:46;;;;;;;2.05;1.35;;;22.50;66.50;;;;;;10123478;28;20520;-66
2022/07/04 03:10:36;;;;;;;1.30;1.00;;;22.50;66.60;;;;;;10130268;28;20119;-64
2022/07/04 03:15:27;;;;;;;0.88;0.80;;;22.30;67.10;;;;;;10132775;28;20614;-67
2022/07/04 03:20:18;;;;;;;1.48;1.30;;;22.30;67.50;;;;;;10130733;28;20044;-60
2022/07/04 03:25:08;;;;;;;1.67;0.80;;;22.30;67.60;;;;;;10131487;28;20210;-63
2022/07/04 03:30:00;;;;;;;1.90;1.00;;;22.30;67.60;;;;;;10133077;28;20044;-65
2022/07/04 03:34:51;;;;;;;1.98;1.00;;;22.30;67.70;;;;;;10132201;28;20127;-68
2022/07/04 03:39:41;;;;;;;1.48;0.80;;;22.20;68.00;;;;;;10132389;28;20036;-69
2022/07/04 03:44:32;;;;;;;2.65;1.45;;;22.00;68.40;;;;;;10132019;28;20631;-63
2022/07/04 03:49:22;;;;;;;1.70;0.80;;;22.20;68.40;;;;;;10131048;28;20115;-61
2022/07/04 03:54:13;;;;;;;2.25;1.05;;;22.00;69.00;;;;;;10143553;28;20028;-63
2022/07/04 03:59:04;;;;;;;2.20;1.00;;;22.10;69.00;;;;;;10144528;28;20498;-67
2022/07/04 04:09:04;;;;;;;1.27;0.80;;;22.00;69.30;;;;;;10145290;28;20557;-61
2022/07/04 04:13:54;;;;;;;1.70;1.00;;;21.90;69.70;;;;;;10145812;28;20031;-63
2022/07/04 04:18:45;;;;;;;1.95;1.27;;;22.20;69.60;;;;;;10144751;28;20244;-61
2022/07/04 04:23:36;;;;;;;2.00;1.70;;;22.20;69.50;;;;;;10144566;28;20032;-65
2022/07/04 04:28:26;;;;;;;2.15;1.02;;;22.00;69.70;;;;;;10143548;28;20029;-70
2022/07/04 04:33:17;;;;;;;2.05;1.08;;;22.10;69.90;;;;;;10143632;28;20479;-65
2022/07/04 04:38:08;;;;;;;1.77;1.67;;;22.00;70.00;;;;;;10149443;28;20031;-68
2022/07/04 04:42:58;;;;;;;2.75;1.50;;;22.00;70.10;;;;;;10144916;28;20032;-63
2022/07/04 04:47:49;;;;;;;3.15;1.23;;;22.00;70.30;;;;;;10125934;28;20039;-66
2022/07/04 04:52:40;;;;;;;1.60;1.02;;;21.90;70.60;;;;;;10143916;28;20036;-62
2022/07/04 04:57:31;;;;;;;4.70;2.25;;;22.20;70.30;;;;;;10144544;28;20050;-65
2022/07/04 05:02:22;;;;;;;1.00;0.80;;;22.30;70.00;;;;;;10140980;28;20562;-65
2022/07/04 05:07:13;;;;;;;0.80;0.80;;;22.30;70.10;;;;;;10134725;28;20509;-67
2022/07/04 05:12:04;;;;;;;2.03;1.35;;;22.30;70.30;;;;;;10136400;28;20075;-67
2022/07/04 05:16:55;;;;;;;3.65;1.15;;;22.30;70.20;;;;;;10136540;28;20035;-62
2022/07/04 05:21:45;;;;;;;2.88;0.90;;;22.40;70.40;;;;;;10115407;28;20032;-62
2022/07/04 05:26:36;;;;;;;2.38;1.30;;;22.70;70.20;;;;;;10136320;28;20032;-63
2022/07/04 05:31:26;;;;;;;2.50;1.10;;;22.80;70.00;;;;;;10135809;28;20020;-59
2022/07/04 05:36:17;;;;;;;4.00;1.83;;;22.70;69.90;;;;;;10137324;28;20024;-64
2022/07/04 05:41:08;;;;;;;1.52;1.42;;;22.70;70.20;;;;;;10135127;28;20027;-65
2022/07/04 05:45:59;;;;;;;3.50;1.20;;;22.90;70.00;;;;;;10135678;28;20186;-64
2022/07/04 05:50:49;;;;;;;1.10;0.82;;;22.90;70.20;;;;;;10135164;28;20062;-62
2022/07/04 05:55:40;;;;;;;2.55;1.25;;;23.00;70.10;;;;;;10127624;28;20467;-59
2022/07/04 06:00:31;;;;;;;2.08;1.20;;;23.10;70.10;;;;;;10134367;28;20028;-64
2022/07/04 06:05:21;;;;;;;3.42;1.13;;;23.10;70.30;;;;;;10116086;28;20131;-64
2022/07/04 06:10:12;;;;;;;3.58;1.55;;;23.20;70.00;;;;;;10134643;28;20132;-61
2022/07/04 06:15:05;;;;;;;2.22;1.25;;;23.00;70.50;;;;;;10135402;28;20544;-69
2022/07/04 06:19:55;;;;;;;1.48;1.30;;;23.10;70.50;;;;;;10137949;28;20450;-61
2022/07/04 06:24:46;;;;;;;6.03;1.80;;;23.30;70.40;;;;;;10133786;28;20037;-59
2022/07/04 06:29:36;;;;;;;1.13;1.00;;;23.40;70.40;;;;;;10147994;28;20041;-62
2022/07/04 06:39:36;;;;;;;2.78;1.02;;;23.20;70.80;;;;;;10126042;28;20059;-59
2022/07/04 06:44:27;;;;;;;6.38;1.63;;;23.20;70.80;;;;;;10138098;28;20615;-62
2022/07/04 06:49:17;;;;;;;1.27;0.98;;;23.20;71.00;;;;;;10137886;28;20033;-61
2022/07/04 06:54:08;;;;;;;5.93;1.63;;;23.20;70.70;;;;;;10138182;28;20066;-65
2022/07/04 06:58:59;;;;;;;4.60;2.25;;;23.10;71.10;;;;;;10138015;28;20036;-66
2022/07/04 07:03:50;;;;;;;3.95;1.30;;;23.10;71.00;;;;;;10137537;28;20267;-60
2022/07/04 07:08:40;;;;;;;1.33;1.10;;;23.20;71.20;;;;;;10138224;28;20256;-66
2022/07/04 07:13:31;;;;;;;6.18;2.42;;;23.10;71.30;;;;;;10136789;28;20109;-62
2022/07/04 07:18:21;;;;;;;2.40;1.60;;;23.20;71.10;;;;;;10119683;28;20044;-64
2022/07/04 07:23:13;;;;;;;6.63;3.13;;;23.30;70.90;;;;;;10135948;28;20390;-61
2022/07/04 07:28:04;;;;;;;3.60;1.75;;;23.20;71.00;;;;;;10135829;28;20046;-58
2022/07/04 07:32:55;;;;;;;2.65;1.30;;;23.30;70.90;;;;;;10118327;28;20388;-57
2022/07/04 07:37:45;;;;;;;4.35;1.75;;;23.40;71.10;;;;;;10136712;28;20101;-61
2022/07/04 07:42:36;;;;;;;2.53;1.40;;;23.30;71.20;;;;;;10100855;28;20461;-64
2022/07/04 07:47:28;;;;;;;0.80;0.80;;;23.40;71.60;;;;;;10136629;28;20084;-61
2022/07/04 07:52:18;;;;;;;1.48;1.10;;;23.40;71.40;;;;;;10136078;28;20021;-60
2022/07/04 07:57:09;;;;;;;3.50;1.08;;;23.40;71.40;;;;;;10137056;28;20038;-61
2022/07/04 08:01:59;;;;;;;1.73;1.23;;;23.50;71.10;;;;;;10134295;28;20023;-60
2022/07/04 08:06:51;;;;;;;1.65;0.98;;;23.60;71.00;;;;;;10130553;28;20085;-58
2022/07/04 08:11:42;;;;;;;4.60;1.30;;;23.80;70.80;;;;;;10131173;28;20514;-58
2022/07/04 08:16:33;;;;;;;1.90;1.38;;;23.90;70.50;;;;;;10131464;28;20052;-62
2022/07/04 08:21:24;;;;;;;2.50;1.33;;;24.00;70.50;;;;;;10130943;28;20054;-54
2022/07/04 08:26:14;;;;;;;3.33;1.60;;;24.10;70.40;;;;;;10131582;28;20118;-59
2022/07/04 08:31:05;;;;;;;2.78;1.38;;;24.20;70.10;;;;;;10131410;28;20150;-59
2022/07/04 08:35:57;;;;;;;5.35;2.22;;;24.30;70.00;;;;;;10130597;28;20033;-66
2022/07/04 08:40:51;;;;;;;7.32;2.25;;;24.40;69.80;;;;;;10138328;28;20350;-63
2022/07/04 08:45:47;;;;;;;1.98;1.20;;;24.50;69.50;;;;;;10139084;28;20483;-60
2022/07/04 08:50:43;;;;;;;6.78;3.58;;;24.50;69.40;;;;;;10138018;28;20255;-60
2022/07/04 09:01:14;;;;;;;2.70;1.65;;;24.70;68.80;;;;;;9933872;28;20031;-59
2022/07/04 09:06:05;;;;;;;4.18;1.20;;;24.90;68.40;;;;;;10089894;28;20473;-61
2022/07/04 09:10:55;;;;;;;3.17;1.85;;;24.90;68.50;;;;;;10140369;28;20063;-58
2022/07/04 09:15:48;;;;;;;2.28;1.77;;;25.00;68.50;;;;;;10139942;28;20037;-62
2022/07/04 09:20:39;;;;;;;5.18;1.60;;;25.00;68.40;;;;;;10138260;28;20052;-58
2022/07/04 09:25:30;;;;;;;3.33;1.23;;;25.20;68.20;;;;;;10137039;28;20068;-60
2022/07/04 09:30:24;;;;;;;2.10;1.27;;;25.20;68.00;;;;;;10136116;28;20443;-63
2022/07/04 09:35:19;;;;;;;2.13;1.07;;;25.20;67.70;;;;;;10137177;28;20025;-61
2022/07/04 09:40:19;;;;;;;2.33;1.17;;;25.20;67.60;;;;;;10136404;28;20394;-64
2022/07/04 09:45:11;;;;;;;4.55;1.50;;;25.40;67.40;;;;;;10135544;28;20483;-59
2022/07/04 09:50:15;;;;;;;4.30;1.35;;;25.50;67.10;;;;;;10135341;28;20096;-59
2022/07/04 09:55:06;;;;;;;3.03;2.55;;;25.70;66.90;;;;;;10130091;28;20020;-57
2022/07/04 10:00:15;;;;;;;1.80;1.55;;;25.90;66.60;;;;;;10130080;28;20071;-58
2022/07/04 10:05:07;;;;;;;2.50;1.45;;;25.90;66.50;;;;;;10133166;28;20127;-60
2022/07/04 10:09:58;;;;;;;3.90;1.42;;;25.90;66.50;;;;;;10134813;28;20084;-60
2022/07/04 10:14:49;;;;;;;4.20;1.33;;;26.30;66.10;;;;;;10120836;28;20537;-59
2022/07/04 10:19:40;;;;;;;7.25;2.90;;;26.40;66.00;;;;;;10134016;28;20060;-58
2022/07/04 10:24:30;;;;;;;1.60;1.35;;;26.20;65.80;;;;;;10134575;28;20027;-61
2022/07/04 10:29:21;;;;;;;2.30;1.25;;;26.20;65.40;;;;;;10133778;28;20479;-58
2022/07/04 10:34:12;;;;;;;2.83;1.10;;;26.10;65.40;;;;;;10135425;28;20116;-65
2022/07/04 10:39:04;;;;;;;3.55;1.33;;;26.30;65.10;;;;;;10138834;28;20028;-58
2022/07/04 10:44:00;;;;;;;3.33;1.67;;;26.50;64.80;;;;;;10116213;28;20448;-59
2022/07/04 10:48:52;;;;;;;1.65;0.75;;;26.60;64.20;;;;;;10134274;28;20387;-66
2022/07/04 10:54:11;;;;;;;2.15;1.52;;;26.70;64.90;;;;;;10133607;28;20023;-64
2022/07/04 10:59:11;;;;;;;3.38;1.50;;;26.80;63.80;;;;;;10088223;28;20152;-62
2022/07/04 11:04:02;;;;;;;3.13;1.45;;;27.00;63.70;;;;;;10121219;28;20084;-60
2022/07/04 11:09:19;;;;;;;2.47;1.40;;;27.10;63.40;;;;;;10130291;28;20344;-59
2022/07/04 11:14:31;;;;;;;4.65;1.20;;;27.30;63.20;;;;;;10125119;28;20041;-61
2022/07/04 11:19:22;;;;;;;1.23;1.10;;;27.10;63.10;;;;;;10132632;28;20380;-59
2022/07/04 11:24:13;;;;;;;3.67;1.95;;;27.20;63.20;;;;;;10133266;28;20025;-58
2022/07/04 11:29:04;;;;;;;3.67;1.17;;;27.40;63.00;;;;;;10133580;28;20037;-58
2022/07/04 11:33:55;;;;;;;1.83;1.30;;;27.20;63.10;;;;;;10134229;28;20036;-60
2022/07/04 11:38:56;;;;;;;3.05;1.00;;;27.40;62.90;;;;;;10129741;28;20033;-58
2022/07/04 11:49:10;;;;;;;1.70;1.30;;;27.70;62.50;;;;;;10136834;28;20349;-59
2022/07/04 11:54:05;;;;;;;5.03;1.50;;;28.10;62.20;;;;;;10131651;28;20021;-58
2022/07/04 11:58:55;;;;;;;4.20;1.58;;;28.20;62.30;;;;;;10133813;28;20036;-59
2022/07/04 12:03:46;;;;;;;4.35;1.23;;;28.30;62.20;;;;;;10115491;28;20189;-55
2022/07/04 12:08:37;;;;;;;3.00;1.80;;;28.10;62.00;;;;;;10134069;28;20284;-63
2022/07/04 12:13:30;;;;;;;3.50;1.50;;;28.30;61.80;;;;;;10136103;28;20372;-59
2022/07/04 12:18:33;;;;;;;2.85;1.30;;;28.20;61.60;;;;;;10138229;28;20020;-65
2022/07/04 12:23:26;;;;;;;2.97;1.40;;;28.50;61.60;;;;;;10139105;28;20495;-61
2022/07/04 12:28:18;;;;;;;4.22;1.25;;;28.70;61.50;;;;;;10130894;28;20576;-61
2022/07/04 12:33:09;;;;;;;1.67;0.88;;;28.90;61.50;;;;;;10138961;28;20036;-65
2022/07/04 12:38:01;;;;;;;1.70;1.13;;;28.90;61.80;;;;;;10136682;28;20032;-64
2022/07/04 12:42:56;;;;;;;2.63;1.15;;;29.10;61.70;;;;;;10138166;28;20041;-59
2022/07/04 12:47:49;;;;;;;1.02;0.93;;;29.60;61.30;;;;;;10138201;28;20043;-56
2022/07/04 12:52:42;;;;;;;1.13;0.88;;;30.30;60.90;;;;;;10139764;28;20407;-61
2022/07/04 12:57:33;;;;;;;0.95;0.85;;;30.60;59.50;;;;;;10136568;28;20036;-61
2022/07/04 13:02:23;;;;;;;2.00;0.95;;;31.00;58.50;;;;;;10137197;28;20021;-64
2022/07/04 13:07:16;;;;;;;2.70;1.30;;;32.10;57.60;;;;;;10137234;28;20062;-67
2022/07/04 13:12:27;;;;;;;2.42;0.90;;;33.10;56.30;;;;;;10137494;28;20048;-60
2022/07/04 13:17:19;;;;;;;3.20;0.73;;;33.40;55.10;;;;;;10129900;28;20035;-60
2022/07/04 13:22:09;;;;;;;2.58;0.85;;;34.00;53.60;;;;;;10137170;28;20032;-68
2022/07/04 13:27:00;;;;;;;2.33;1.53;;;34.40;51.30;;;;;;10136112;28;20059;-67
2022/07/04 13:31:51;;;;;;;1.60;0.95;;;34.90;50.30;;;;;;10136402;28;20035;-67
2022/07/04 13:36:41;;;;;;;1.73;0.80;;;35.20;48.80;;;;;;10137089;28;20093;-63
2022/07/04 13:41:34;;;;;;;0.93;0.70;;;35.50;47.90;;;;;;10137258;28;20675;-70
2022/07/04 13:46:24;;;;;;;0.80;0.80;;;36.10;47.50;;;;;;10131952;28;20334;-60
2022/07/04 13:51:15;;;;;;;1.95;0.82;;;36.10;46.50;;;;;;10135706;28;20017;-65
2022/07/04 13:56:06;;;;;;;1.65;0.93;;;36.20;46.30;;;;;;10131181;28;20400;-61
2022/07/04 14:00:57;;;;;;;3.55;0.98;;;37.10;45.30;;;;;;10118002;28;20043;-60
2022/07/04 14:05:47;;;;;;;3.72;1.00;;;36.70;44.50;;;;;;10139747;28;20032;-66
2022/07/04 14:10:38;;;;;;;1.40;0.90;;;37.60;44.20;;;;;;10132310;28;20140;-61
2022/07/04 14:15:29;;;;;;;2.28;0.90;;;37.70;43.80;;;;;;10134323;28;20032;-56
2022/07/04 14:20:19;;;;;;;2.45;1.10;;;37.70;43.50;;;;;;10133572;28;20021;-63
2022/07/04 14:25:10;;;;;;;1.00;0.90;;;37.90;43.10;;;;;;10134430;28;20421;-58
2022/07/04 14:30:02;;;;;;;1.95;1.05;;;38.00;43.30;;;;;;10134754;28;20035;-59
2022/07/04 14:34:53;;;;;;;1.40;0.90;;;36.80;42.70;;;;;;10116591;28;20024;-57
2022/07/04 14:39:44;;;;;;;2.65;0.90;;;36.10;43.80;;;;;;10133943;28;20119;-58
2022/07/04 14:44:37;;;;;;;2.20;1.15;;;38.10;42.00;;;;;;10134959;28;20537;-59
2022/07/04 14:49:27;;;;;;;1.23;0.82;;;34.90;42.30;;;;;;10134242;28;20448;-59
2022/07/04 14:54:18;;;;;;;1.13;0.70;;;32.50;43.20;;;;;;10129947;28;20024;-61
2022/07/04 14:59:09;;;;;;;2.50;0.80;;;31.60;43.50;;;;;;10132974;28;20086;-67
2022/07/04 15:04:00;;;;;;;1.50;0.98;;;31.30;43.20;;;;;;10126236;28;20542;-66
2022/07/04 15:08:51;;;;;;;1.30;0.70;;;30.70;43.40;;;;;;10132954;28;20059;-63
2022/07/04 15:13:42;;;;;;;3.10;1.23;;;30.70;43.40;;;;;;10132023;28;20093;-66
2022/07/04 15:18:33;;;;;;;1.98;0.88;;;30.50;43.70;;;;;;10127142;28;20028;-66
2022/07/04 15:28:33;;;;;;;4.18;3.60;;;30.20;44.00;;;;;;10134172;28;20048;-62
2022/07/04 15:33:25;;;;;;;3.33;1.30;;;30.10;44.00;;;;;;10135041;28;20019;-63
2022/07/04 15:38:15;;;;;;;2.33;1.20;;;30.00;44.20;;;;;;10130537;28;20799;-69
2022/07/04 15:43:06;;;;;;;4.15;1.23;;;29.90;44.10;;;;;;10130404;28;20012;-61
2022/07/04 15:47:56;;;;;;;3.80;1.40;;;30.10;44.20;;;;;;10130744;28;20056;-64
2022/07/04 15:52:47;;;;;;;2.33;1.25;;;30.00;44.30;;;;;;10131026;28;20048;-62
2022/07/04 15:57:38;;;;;;;1.42;1.05;;;29.90;44.60;;;;;;10112286;28;20112;-59
2022/07/04 16:02:28;;;;;;;1.30;0.93;;;29.70;44.90;;;;;;10129251;28;20020;-65
2022/07/04 16:07:19;;;;;;;3.17;1.00;;;29.60;45.00;;;;;;10130241;28;20445;-67
2022/07/04 16:12:10;;;;;;;3.22;1.70;;;29.60;45.10;;;;;;10128713;28;20097;-63
2022/07/04 16:17:00;;;;;;;1.50;0.85;;;29.80;45.00;;;;;;10132075;28;20123;-58
2022/07/04 16:21:52;;;;;;;2.05;1.08;;;29.80;45.20;;;;;;10131959;28;20463;-62
2022/07/04 16:26:43;;;;;;;2.08;0.90;;;29.80;45.20;;;;;;10131851;28;20037;-69
2022/07/04 16:31:33;;;;;;;2.88;1.08;;;29.90;45.30;;;;;;10130482;28;20024;-62
2022/07/04 16:36:24;;;;;;;6.47;1.27;;;30.30;45.10;;;;;;10132397;28;20038;-59
2022/07/04 16:41:14;;;;;;;1.48;0.98;;;30.70;44.90;;;;;;10130361;28;20333;-61
2022/07/04 16:46:05;;;;;;;1.00;0.90;;;32.20;43.80;;;;;;10131487;28;20113;-68
2022/07/04 16:50:56;;;;;;;2.58;1.20;;;31.60;44.30;;;;;;10131024;28;20103;-60
2022/07/04 16:55:47;;;;;;;0.80;0.70;;;33.80;43.60;;;;;;10126095;28;20039;-65
2022/07/04 17:00:38;;;;;;;70.80;61.00;;;37.60;41.40;;;;;;10135691;28;20029;-58
2022/07/04 17:05:29;;;;;;;4.97;2.53;;;38.90;40.70;;;;;;10138218;28;20073;-66
2022/07/04 17:10:19;;;;;;;1.67;1.23;;;38.00;41.00;;;;;;10136547;28;20385;-63
2022/07/04 17:15:10;;;;;;;2.77;0.90;;;37.00;41.70;;;;;;10137738;28;20029;-63
2022/07/04 17:20:01;;;;;;;2.05;0.90;;;35.90;41.70;;;;;;10136550;28;20039;-66
2022/07/04 17:24:52;;;;;;;1.13;0.85;;;32.80;44.20;;;;;;10137674;28;20379;-66
2022/07/04 17:29:43;;;;;;;3.47;1.52;;;32.60;44.20;;;;;;10127816;28;20028;-67
2022/07/04 17:34:34;;;;;;;1.60;1.08;;;33.30;43.90;;;;;;10134131;28;20017;-68
2022/07/04 17:39:25;;;;;;;1.80;1.27;;;35.90;42.50;;;;;;10132545;28;20107;-68
2022/07/04 17:44:18;;;;;;;0.93;0.88;;;37.10;41.70;;;;;;10116599;28;20112;-69
2022/07/04 17:49:08;;;;;;;1.90;1.02;;;37.60;41.40;;;;;;10134991;28;20035;-69
2022/07/04 17:53:59;;;;;;;1.50;1.10;;;34.50;42.70;;;;;;10116645;28;20108;-70
2022/07/04 17:58:50;;;;;;;3.80;1.48;;;35.40;42.50;;;;;;10133021;28;20024;-68
2022/07/04 18:03:40;;;;;;;4.07;1.17;;;33.40;43.10;;;;;;10136420;28;20024;-72
2022/07/04 18:08:35;;;;;;;2.30;0.98;;;31.20;44.40;;;;;;10135460;28;20424;-74
2022/07/04 18:13:25;;;;;;;2.10;1.10;;;29.60;45.30;;;;;;10133444;28;20052;-72
2022/07/04 18:18:19;;;;;;;1.58;1.27;;;28.80;45.80;;;;;;10135054;28;20419;-71
2022/07/04 18:23:10;;;;;;;1.95;1.30;;;28.60;46.10;;;;;;10117810;28;20142;-71
2022/07/04 18:28:00;;;;;;;2.10;1.20;;;28.50;46.20;;;;;;10135067;28;20570;-70
2022/07/04 18:32:51;;;;;;;3.53;1.60;;;28.40;46.50;;;;;;10135256;28;20032;-68
2022/07/04 18:37:42;;;;;;;5.80;3.40;;;28.10;46.70;;;;;;10116777;28;20115;-70
2022/07/04 18:47:42;;;;;;;3.65;1.60;;;27.60;46.80;;;;;;10129217;28;20075;-68
2022/07/04 18:52:33;;;;;;;6.57;3.50;;;27.50;46.90;;;;;;10124954;28;20039;-66
2022/07/04 18:57:24;;;;;;;3.90;2.05;;;27.40;47.20;;;;;;10125708;28;20033;-67
2022/07/04 19:02:14;;;;;;;2.05;1.17;;;27.30;47.30;;;;;;10121024;28;20051;-70
2022/07/04 19:07:05;;;;;;;1.38;1.15;;;27.40;47.20;;;;;;10129665;28;20064;-67
2022/07/04 19:11:56;;;;;;;3.80;1.67;;;27.30;47.20;;;;;;10132485;28;20080;-66
2022/07/04 19:16:46;;;;;;;1.80;1.20;;;27.30;47.20;;;;;;10132611;28;20024;-66
2022/07/04 19:21:37;;;;;;;1.15;0.75;;;27.10;47.30;;;;;;10131320;28;20490;-66
2022/07/04 19:26:28;;;;;;;1.90;1.20;;;26.80;47.60;;;;;;10121517;28;20098;-68
2022/07/04 19:31:19;;;;;;;2.45;1.10;;;26.70;48.00;;;;;;10129154;28;20112;-65
2022/07/04 19:36:10;;;;;;;5.60;1.85;;;26.60;48.00;;;;;;10131499;28;20032;-67
2022/07/04 19:41:01;;;;;;;2.45;1.58;;;26.50;48.10;;;;;;10128939;28;20253;-64
2022/07/04 19:45:52;;;;;;;1.52;1.08;;;26.50;48.20;;;;;;10133000;28;20324;-65
2022/07/04 19:50:44;;;;;;;4.40;1.60;;;26.40;48.40;;;;;;10131612;28;20046;-65
2022/07/04 19:55:34;;;;;;;2.70;1.13;;;26.30;48.40;;;;;;10109846;28;20268;-66
2022/07/04 20:00:25;;;;;;;6.80;1.60;;;26.30;48.40;;;;;;10132007;28;20233;-65
2022/07/04 20:05:16;;;;;;;3.85;1.65;;;26.20;48.30;;;;;;10130750;28;20028;-64
2022/07/04 20:10:08;;;;;;;4.75;1.95;;;26.30;48.40;;;;;;10129467;28;20155;-66
2022/07/04 20:14:59;;;;;;;3.00;1.40;;;26.30;48.40;;;;;;10132664;28;20400;-64
2022/07/04 20:19:51;;;;;;;3.08;1.73;;;26.20;48.40;;;;;;10135178;28;20024;-63
2022/07/04 20:24:44;;;;;;;1.67;1.42;;;26.20;48.40;;;;;;10131810;28;20029;-66
2022/07/04 20:29:35;;;;;;;3.75;1.50;;;26.20;48.50;;;;;;10130918;28;20117;-63
2022/07/04 20:34:29;;;;;;;5.13;1.73;;;26.20;48.50;;;;;;10135808;28;20506;-62
2022/07/04 20:39:20;;;;;;;3.87;1.60;;;26.20;48.60;;;;;;10139451;28;20047;-60
2022/07/04 20:44:10;;;;;;;1.83;1.33;;;26.20;48.70;;;;;;10119049;28;20020;-61
2022/07/04 20:49:01;;;;;;;11.63;6.78;;;26.10;48.80;;;;;;10138155;28;20040;-60
2022/07/04 20:53:52;;;;;;;8.35;4.70;;;26.00;48.80;;;;;;10138900;28;20345;-61
2022/07/04 20:58:42;;;;;;;4.65;2.40;;;25.90;49.00;;;;;;10133431;28;20028;-61
2022/07/04 21:03:33;;;;;;;5.28;2.15;;;25.80;49.20;;;;;;10125267;28;20028;-62
2022/07/04 21:08:24;;;;;;;3.88;1.63;;;25.70;49.50;;;;;;10138075;28;20127;-61
2022/07/04 21:13:14;;;;;;;4.78;1.77;;;25.60;49.80;;;;;;10119349;28;20053;-64
2022/07/04 21:18:05;;;;;;;5.57;2.00;;;25.70;50.00;;;;;;10135725;28;20490;-65
2022/07/04 21:22:56;;;;;;;4.60;1.90;;;25.60;50.30;;;;;;10131605;28;20039;-67
2022/07/04 21:27:47;;;;;;;6.10;2.28;;;25.50;50.40;;;;;;10135898;28;20076;-66
2022/07/04 21:32:38;;;;;;;1.40;1.15;;;25.60;50.50;;;;;;10136509;28;20027;-66
2022/07/04 21:37:28;;;;;;;3.13;1.45;;;25.50;50.60;;;;;;10135827;28;20382;-64
2022/07/04 21:42:19;;;;;;;4.25;1.67;;;25.40;51.00;;;;;;10136489;28;20029;-65
2022/07/04 21:47:10;;;;;;;3.25;1.33;;;25.40;51.20;;;;;;10136372;28;20064;-63
2022/07/04 21:52:01;;;;;;;10.57;6.53;;;25.40;51.40;;;;;;10135545;28;20028;-67
2022/07/04 21:56:52;;;;;;;16.35;8.95;;;25.30;52.20;;;;;;10132773;28;20082;-65
2022/07/04 22:01:43;;;;;;;13.50;8.43;;;25.20;51.80;;;;;;10137220;28;20024;-68
2022/07/04 22:06:34;;;;;;;6.13;5.03;;;25.20;51.90;;;;;;10126278;28;20049;-67
2022/07/04 22:11:24;;;;;;;3.97;2.33;;;25.10;52.10;;;;;;10120530;28;20047;-67
2022/07/04 22:16:15;;;;;;;9.85;1.85;;;24.90;52.40;;;;;;10121157;28;20025;-65
2022/07/04 22:21:06;;;;;;;2.65;1.52;;;24.60;53.00;;;;;;10138498;28;20255;-65
2022/07/04 22:25:57;;;;;;;3.70;1.40;;;24.40;53.30;;;;;;10130468;28;20052;-66
2022/07/04 22:30:48;;;;;;;1.95;1.10;;;24.30;53.40;;;;;;10136053;28;20119;-65
2022/07/04 22:35:39;;;;;;;4.22;0.95;;;24.10;53.80;;;;;;10138715;28;20111;-65
2022/07/04 22:40:30;;;;;;;1.45;1.00;;;24.10;53.80;;;;;;10138671;28;20078;-66
2022/07/04 22:45:20;;;;;;;2.42;1.27;;;24.10;53.90;;;;;;10138259;28;20027;-65
2022/07/04 22:50:11;;;;;;;2.88;0.90;;;24.00;54.10;;;;;;10138335;28;20029;-64
2022/07/04 22:55:08;;;;;;;3.13;1.40;;;23.80;54.30;;;;;;10128553;28;20028;-65
2022/07/04 23:00:03;;;;;;;3.33;1.00;;;23.70;54.70;;;;;;10137310;28;20027;-66
2022/07/04 23:04:54;;;;;;;1.58;1.05;;;23.60;54.90;;;;;;10137607;28;20023;-68
2022/07/04 23:09:45;;;;;;;3.03;1.00;;;23.50;55.20;;;;;;10119032;28;20052;-64
2022/07/04 23:14:36;;;;;;;0.93;0.82;;;23.30;55.60;;;;;;10137530;28;20609;-66
2022/07/04 23:19:27;;;;;;;3.03;1.38;;;23.30;55.80;;;;;;10137406;28;20024;-66
2022/07/04 23:24:17;;;;;;;4.03;1.08;;;23.30;55.70;;;;;;10136755;28;20095;-66
2022/07/04 23:29:08;;;;;;;2.10;1.10;;;23.20;55.70;;;;;;10136369;28;20041;-65
2022/07/04 23:33:59;;;;;;;2.40;0.85;;;23.20;55.90;;;;;;10136691;28;20498;-66
2022/07/04 23:38:50;;;;;;;2.55;1.00;;;23.20;56.10;;;;;;10136148;28;20032;-65
2022/07/04 23:43:40;;;;;;;2.25;1.00;;;23.20;56.00;;;;;;10136556;28;20067;-66
2022/07/04 23:48:34;;;;;;;1.75;0.95;;;23.30;56.00;;;;;;10135826;28;20578;-66
2022/07/04 23:53:25;;;;;;;1.00;0.75;;;23.00;56.40;;;;;;10136304;28;20490;-68
2022/07/04 23:58:16;;;;;;;1.58;0.77;;;22.90;56.50;;;;;;10117638;28;20032;-68
